Flight Track Log - Related Links

Times and Time Zones

All times are in EST time to prevent confusion due to time zone crossing. See the SWA4138 flight status page for this flight to view local times or setup timezone preferences in your user account.

Time Position Orientation Groundspeed Altitude Reporting Facility
EST Latitude Longitude Course Direction KTS MPH feet Rate Location/Type
Sat 10:08:45 AM 30.0050 -90.2456 22° Northeast 137 158 700  Level Houston Center
Sat 10:10:13 AM 30.0786 -90.2106 22° Northeast 223 257 3,500 2,120 Climbing Houston Center
Sat 10:11:15 AM 30.0417 -90.1561 128° Southeast 234 269 6,000 3,024 Climbing Houston Center
Sat 10:12:16 AM 29.9767 -90.1128 150° Southeast 259 298 9,700 3,268 Climbing Houston Center
Sat 10:13:18 AM 29.9050 -90.0628 149° Southeast 286 329 12,700 3,122 Climbing Houston Center
Sat 10:14:19 AM 29.8222 -90.0047 149° Southeast 329 379 16,100 2,976 Climbing Houston Center
Sat 10:15:21 AM 29.7372 -89.9447 148° Southeast 355 409 18,800 3,000 Climbing Houston Center
Sat 10:16:23 AM 29.6492 -89.8406 134° Southeast 402 463 22,300 2,878 Climbing Houston Center
Sat 10:17:24 AM 29.6147 -89.7164 108° East 410 472 24,700 2,341 Climbing Houston Center
Sat 10:18:26 AM 29.5769 -89.5867 108° East 424 488 27,100 2,098 Climbing Houston Center
Sat 10:19:27 AM 29.5386 -89.4519 108° East 441 507 29,000 1,805 Climbing Houston Center
Sat 10:20:29 AM 29.4997 -89.3158 108° East 449 517 30,800 1,415 Climbing Houston Center
Sat 10:21:30 AM 29.4592 -89.1761 108° East 460 529 31,900 1,024 Climbing Houston Center
Sat 10:22:32 AM 29.4186 -89.0350 108° East 467 537 32,900 726 Climbing Houston Center
Sat 10:23:34 AM 29.3681 -88.8608 108° East 477 549 33,400 1,366 Climbing Houston Center
Sat 10:24:35 AM 29.3258 -88.7189 109° East 473 544 35,700 1,659 Climbing Houston Center
Sat 10:25:37 AM 29.2853 -88.5808 109° East 462 532 36,800 968 Climbing Houston Center
Sat 10:26:39 AM 29.2433 -88.4400 109° East 467 537 37,700 1,073 Climbing Houston Center
Sat 10:27:40 AM 29.2006 -88.2964 109° East 476 548 39,000 634 Climbing Houston Center
Sat 10:28:42 AM 29.1569 -88.1539 109° East 474 545 39,000  Level Houston Center
Sat 10:29:44 AM 29.1128 -88.0028 108° East 476 548 39,000  Level Houston Center
Sat 10:30:46 AM 29.0706 -87.8622 109° East 470 541 39,000  Level Houston Center
Sat 10:31:47 AM 29.0181 -87.6919 109° East 474 545 39,000  Level Houston Center
Sat 10:32:49 AM 28.9753 -87.5517 109° East 472 543 39,000  Level Houston Center
Sat 10:33:51 AM 28.9325 -87.4108 109° East 470 541 39,000  Level Houston Center
Sat 10:34:53 AM 28.8889 -87.2700 109° East 472 543 39,000  Level Houston Center
Sat 10:35:54 AM 28.8444 -87.1292 110° East 475 547 39,000  Level Houston Center
Sat 10:36:56 AM 28.8006 -86.9875 109° East 474 545 39,000  Level Houston Center
Sat 10:38:00 AM 28.7472 -86.8183 110° East 475 547 39,000  Level Jacksonville Center
Sat 10:39:01 AM 28.7017 -86.6722 110° East 480 552 39,000  Level Jacksonville Center
Sat 10:40:00 AM 28.6556 -86.5286 110° East 480 552 39,000  Level Jacksonville Center
Sat 10:41:00 AM 28.6097 -86.3828 110° East 478 550 39,000  Level Jacksonville Center
Sat 10:42:00 AM 28.5672 -86.2467 110° East 476 548 39,000  Level Jacksonville Center
Sat 10:43:00 AM 28.5189 -86.1056 111° Southeast 471 542 39,000  Level Jacksonville Center
Sat 10:44:00 AM 28.4744 -85.9600 109° East 477 549 39,000  Level Jacksonville Center
Sat 10:45:01 AM 28.4294 -85.8242 111° Southeast 472 543 39,000  Level Jacksonville Center
Sat 10:46:00 AM 28.3825 -85.6836 111° Southeast 477 549 39,000  Level Jacksonville Center
Sat 10:47:00 AM 28.3375 -85.5408 110° East 470 541 39,000  Level Jacksonville Center
Sat 10:48:01 AM 28.2903 -85.4031 111° Southeast 475 547 39,000  Level Jacksonville Center
Sat 10:50:59 AM 28.1558 -84.9844 110° East 479 551 39,000  Level Miami Center
Sat 10:51:59 AM 28.1117 -84.8472 110° East 479 551 39,000  Level Miami Center
Sat 10:52:59 AM 28.0614 -84.7006 111° Southeast 470 541 39,000  Level Miami Center
Sat 10:53:59 AM 28.0167 -84.5636 110° East 470 541 39,000  Level Miami Center
Sat 10:54:59 AM 27.9786 -84.4178 106° East 470 541 39,000  Level Miami Center
Sat 10:55:59 AM 27.9650 -84.2806 96° East 480 552 39,000  Level Miami Center
Sat 10:56:59 AM 27.9542 -84.1250 94° East 485 558 39,000 -850 Level Miami Center
Sat 10:57:59 AM 27.9428 -83.9739 95° East 491 565 37,300 -2,200 Descending Miami Center
Sat 10:58:59 AM 27.9317 -83.8183 95° East 491 565 34,600 -2,850 Descending Miami Center
Sat 10:59:59 AM 27.9183 -83.6628 96° East 491 565 31,600 -2,700 Descending Miami Center
Sat 11:00:59 AM 27.9047 -83.5069 96° East 491 565 29,200 -1,800 Descending Miami Center
Sat 11:01:59 AM 27.8950 -83.3586 94° East 491 565 28,000 -1,150 Descending Miami Center
Sat 11:02:59 AM 27.8828 -83.2122 95° East 480 552 26,900 -1,050 Descending Miami Center
Sat 11:03:59 AM 27.8703 -83.0661 95° East 475 547 25,900 -1,000 Descending Miami Center
Sat 11:04:59 AM 27.8597 -82.9247 95° East 459 528 24,900 -1,000 Descending Miami Center
Sat 11:05:59 AM 27.8467 -82.7833 96° East 459 528 23,900 -1,000 Descending Miami Center
Sat 11:06:59 AM 27.8336 -82.6442 96° East 448 516 22,900 -1,050 Descending Miami Center
Sat 11:07:59 AM 27.8328 -82.5056 90° East 442 509 21,800 -1,150 Descending Miami Center
Sat 11:08:59 AM 27.8714 -82.3761 71° East 437 503 20,600 -1,735 Descending Miami Center
Sat 11:10:45 AM 27.9500 -82.1333 70° East 424 488 17,000 -2,205 Descending Orlando TRACON
Sat 11:11:45 AM 27.9833 -82.0167 72° East 400 460 14,500 -1,983 Descending Orlando TRACON
Sat 11:12:46 AM 28.0333 -81.9167 60° Northeast 363 418 13,000 -1,190 Descending Orlando TRACON
Sat 11:13:46 AM 28.1000 -81.8500 41° Northeast 309 356 12,100 -1,150 Descending Orlando TRACON
Sat 11:14:46 AM 28.1667 -81.7833 41° Northeast 307 353 10,700 -1,500 Descending Orlando TRACON
Sat 11:15:46 AM 28.1833 -81.7000 77° East 297 342 9,100 -1,650 Descending Orlando TRACON
Sat 11:16:46 AM 28.2000 -81.6000 79° East 286 329 7,400 -1,736 Descending Orlando TRACON
Sat 11:17:47 AM 28.2333 -81.5167 66° East 284 327 5,600 -1,587 Descending Orlando TRACON
Sat 11:18:47 AM 28.2667 -81.4500 60° Northeast 255 293 4,200 -1,600 Descending Orlando TRACON
Sat 11:19:47 AM 28.3000 -81.3833 60° Northeast 250 288 2,400 -1,143 Descending Orlando TRACON
Sat 11:20:53 AM 28.3333 -81.3167 60° Northeast 172 198 1,800 -446 Descending Orlando TRACON
Sat 11:21:48 AM 28.3500 -81.2833 60° Northeast 139 160 1,500 -574 Descending Orlando TRACON
Sat 11:22:48 AM 28.4000 -81.2833 360° North 139 160 700 -800 Descending Orlando TRACON
Sat 11:24:00 AM 28.4294 -81.3090 North  Level Estimated

Login

Don't have an account? Register now (free) for customized features, flight alerts, and more!